Time;durP1;ratioP1;P1;durP2;ratioP2;P2;SDS_P1;SDS_P2;PMS_P1;PMS_P2;Temp;Humidity;BMP_temperature;BMP_pressure;BME280_temperature;BME280_humidity;BME280_pressure;Samples;Min_cycle;Max_cycle;Signal;HPM_P1;HPM_P2
2020/12/04 00:02:07;;;;;;;6.55;5.00;;;6.90;99.90;;;;;;4972733;28;20175;-80
2020/12/04 00:04:33;;;;;;;5.00;4.40;;;6.80;99.90;;;;;;4971544;28;20168;-79
2020/12/04 00:07:00;;;;;;;8.32;5.47;;;6.90;99.90;;;;;;4955424;28;20210;-80
2020/12/04 00:09:27;;;;;;;4.75;4.35;;;6.90;99.90;;;;;;4972616;28;20168;-80
2020/12/04 00:11:53;;;;;;;8.23;5.45;;;6.80;99.90;;;;;;4972560;28;20247;-79
2020/12/04 00:14:19;;;;;;;5.87;5.27;;;6.80;99.90;;;;;;4976730;28;20556;-79
2020/12/04 00:16:45;;;;;;;5.90;5.40;;;6.80;99.90;;;;;;4972602;28;20529;-79
2020/12/04 00:19:11;;;;;;;8.43;4.50;;;6.70;99.90;;;;;;4972173;28;20618;-79
2020/12/04 00:21:37;;;;;;;6.43;5.78;;;6.80;99.90;;;;;;4972419;28;20191;-80
2020/12/04 00:24:03;;;;;;;5.53;4.90;;;6.80;99.90;;;;;;4972555;28;20635;-79
2020/12/04 00:26:29;;;;;;;4.93;4.37;;;6.80;99.90;;;;;;4972439;28;20602;-79
2020/12/04 00:28:54;;;;;;;5.70;4.90;;;6.80;99.90;;;;;;4972077;28;20563;-79
2020/12/04 00:31:20;;;;;;;6.13;4.83;;;6.90;99.90;;;;;;4972209;28;20985;-79
2020/12/04 00:33:46;;;;;;;4.10;3.57;;;6.90;99.90;;;;;;4954812;28;20203;-80
2020/12/04 00:36:12;;;;;;;4.20;3.50;;;6.90;99.90;;;;;;4972239;28;20595;-80
2020/12/04 00:38:38;;;;;;;4.72;3.70;;;6.90;99.90;;;;;;4954909;28;20218;-79
2020/12/04 00:41:04;;;;;;;4.83;4.33;;;6.90;99.90;;;;;;4970864;28;20167;-80
2020/12/04 00:43:30;;;;;;;5.80;4.70;;;6.70;99.90;;;;;;4954938;28;20574;-79
2020/12/04 00:45:55;;;;;;;5.03;4.53;;;6.80;99.90;;;;;;4972149;28;20715;-79
2020/12/04 00:48:21;;;;;;;4.40;4.00;;;6.80;99.90;;;;;;4972227;28;21159;-80
2020/12/04 00:50:47;;;;;;;5.30;4.80;;;6.90;99.90;;;;;;4972377;28;20179;-80
2020/12/04 00:53:13;;;;;;;4.72;4.25;;;6.70;99.90;;;;;;4970825;28;20199;-80
2020/12/04 00:55:43;;;;;;;3.45;3.15;;;6.80;99.90;;;;;;4970825;28;20203;-80
2020/12/04 00:58:09;;;;;;;5.00;4.23;;;6.90;99.90;;;;;;4971459;28;20167;-80
2020/12/04 01:00:36;;;;;;;6.82;4.65;;;6.90;99.90;;;;;;4970710;28;21013;-79
2020/12/04 01:03:02;;;;;;;4.03;3.63;;;6.90;99.90;;;;;;4971835;28;20168;-79
2020/12/04 01:05:28;;;;;;;4.20;3.77;;;6.90;99.90;;;;;;4971845;28;20202;-79
2020/12/04 01:07:54;;;;;;;4.53;4.10;;;6.90;99.90;;;;;;4955199;28;20606;-79
2020/12/04 01:10:20;;;;;;;4.37;3.80;;;6.80;99.90;;;;;;4972013;28;20168;-79
2020/12/04 01:12:46;;;;;;;4.90;4.40;;;6.80;99.90;;;;;;4972041;28;20250;-79
2020/12/04 01:15:12;;;;;;;4.15;3.55;;;6.80;99.90;;;;;;4971732;28;20595;-79
2020/12/04 01:17:38;;;;;;;5.03;4.53;;;6.90;99.90;;;;;;4973082;28;20222;-78
2020/12/04 01:20:04;;;;;;;4.20;3.90;;;6.90;99.90;;;;;;4955276;28;20571;-81
2020/12/04 01:22:31;;;;;;;4.95;4.45;;;6.90;99.90;;;;;;4972827;28;20567;-79
2020/12/04 01:24:57;;;;;;;5.15;4.00;;;6.90;99.90;;;;;;4971987;28;20688;-79
2020/12/04 01:27:23;;;;;;;3.47;3.10;;;7.00;99.90;;;;;;4959688;28;20182;-81
2020/12/04 01:29:49;;;;;;;5.00;4.50;;;7.00;99.90;;;;;;4955581;28;20187;-82
2020/12/04 01:32:15;;;;;;;5.90;4.53;;;7.00;99.90;;;;;;4973021;28;21128;-80
2020/12/04 01:34:41;;;;;;;4.47;4.03;;;7.00;99.90;;;;;;4972123;28;20255;-80
2020/12/04 01:37:07;;;;;;;4.90;4.40;;;7.00;99.90;;;;;;4972579;28;20567;-79
2020/12/04 01:39:32;;;;;;;3.97;3.50;;;6.90;99.90;;;;;;4970567;28;20576;-80
2020/12/04 01:41:58;;;;;;;5.00;4.50;;;7.00;99.90;;;;;;4972671;28;21156;-79
2020/12/04 01:44:24;;;;;;;6.20;5.40;;;7.10;99.90;;;;;;4971575;28;20582;-79
2020/12/04 01:46:51;;;;;;;5.37;3.70;;;6.90;99.90;;;;;;4972501;28;20610;-79
2020/12/04 01:49:17;;;;;;;6.95;5.25;;;7.00;99.90;;;;;;4971441;28;20198;-79
2020/12/04 01:51:44;;;;;;;6.03;4.97;;;6.90;99.90;;;;;;4972389;28;20183;-79
2020/12/04 01:54:10;;;;;;;9.13;5.22;;;6.80;99.90;;;;;;4954203;28;20340;-79
2020/12/04 01:56:39;;;;;;;5.45;4.90;;;6.80;99.90;;;;;;4955025;28;20688;-78
2020/12/04 01:59:05;;;;;;;5.53;4.72;;;6.90;99.90;;;;;;4953821;28;20168;-79
2020/12/04 02:01:35;;;;;;;6.22;4.63;;;6.80;99.90;;;;;;4972026;28;20846;-79
2020/12/04 02:04:01;;;;;;;4.63;4.18;;;6.80;99.90;;;;;;4979481;28;20175;-79
2020/12/04 02:06:55;;;;;;;6.35;3.92;;;6.90;99.90;;;;;;4959104;28;20271;-79
2020/12/04 02:09:30;;;;;;;5.05;4.15;;;6.90;99.90;;;;;;4974134;28;20211;-79
2020/12/04 02:11:59;;;;;;;5.03;4.60;;;6.90;99.90;;;;;;4975904;28;20262;-79
2020/12/04 02:14:25;;;;;;;5.00;4.30;;;6.80;99.90;;;;;;4957611;28;20199;-79
2020/12/04 02:17:05;;;;;;;4.47;4.18;;;6.80;99.90;;;;;;4976115;28;20706;-79
2020/12/04 02:19:41;;;;;;;4.50;4.10;;;6.70;99.90;;;;;;4957480;28;20198;-79
2020/12/04 02:22:09;;;;;;;6.63;4.03;;;6.80;99.90;;;;;;4958679;28;20692;-79
2020/12/04 02:24:35;;;;;;;4.63;4.13;;;6.80;99.90;;;;;;4941539;28;20176;-79
2020/12/04 02:27:01;;;;;;;5.25;4.47;;;6.70;99.90;;;;;;4975740;28;20580;-79
2020/12/04 02:29:28;;;;;;;4.45;4.05;;;6.70;99.90;;;;;;4957159;28;20172;-79
2020/12/04 02:31:53;;;;;;;4.97;4.50;;;6.70;99.90;;;;;;4975649;28;20199;-79
2020/12/04 02:34:19;;;;;;;4.83;4.40;;;6.70;99.90;;;;;;4975040;28;20230;-79
2020/12/04 02:36:46;;;;;;;5.43;4.93;;;6.70;99.90;;;;;;4975045;28;20603;-79
2020/12/04 02:39:13;;;;;;;7.65;5.75;;;6.80;99.90;;;;;;4974562;28;20666;-79
2020/12/04 02:41:45;;;;;;;6.07;5.10;;;6.60;99.90;;;;;;4960554;28;20171;-80
2020/12/04 02:44:11;;;;;;;5.35;4.78;;;6.60;99.90;;;;;;4974300;28;20171;-80
2020/12/04 02:46:37;;;;;;;5.87;5.37;;;6.60;99.90;;;;;;4976299;28;20187;-79
2020/12/04 02:49:03;;;;;;;4.55;4.13;;;6.60;99.90;;;;;;4974307;28;20567;-79
2020/12/04 02:51:28;;;;;;;5.67;5.17;;;6.60;99.90;;;;;;4976321;28;20198;-79
2020/12/04 02:53:54;;;;;;;7.27;4.47;;;6.40;99.90;;;;;;4974876;28;20615;-79
2020/12/04 02:56:20;;;;;;;5.03;4.53;;;6.50;99.90;;;;;;4975978;28;20289;-79
2020/12/04 02:58:46;;;;;;;6.60;5.23;;;6.40;99.90;;;;;;4974791;28;20175;-79
2020/12/04 03:01:11;;;;;;;6.00;5.40;;;6.40;99.90;;;;;;4975725;28;20172;-79
2020/12/04 03:03:37;;;;;;;6.10;5.50;;;6.50;99.90;;;;;;4974408;28;20168;-79
2020/12/04 03:06:03;;;;;;;5.23;4.73;;;6.40;99.90;;;;;;4942974;28;20673;-79
2020/12/04 03:08:29;;;;;;;5.20;4.70;;;6.40;99.90;;;;;;4974236;28;20176;-79
2020/12/04 03:10:56;;;;;;;5.93;5.32;;;6.50;99.90;;;;;;4974232;28;20594;-79
2020/12/04 03:13:22;;;;;;;5.68;5.13;;;6.40;99.90;;;;;;4974453;28;20258;-79
2020/12/04 03:15:49;;;;;;;4.95;4.45;;;6.40;99.90;;;;;;4939658;28;20191;-79
2020/12/04 03:18:14;;;;;;;5.53;4.75;;;6.40;99.90;;;;;;4961328;28;20251;-79
2020/12/04 03:20:40;;;;;;;5.87;5.27;;;6.40;99.90;;;;;;4973586;28;20170;-79
2020/12/04 03:23:06;;;;;;;5.47;5.00;;;6.50;99.90;;;;;;4941028;28;20179;-79
2020/12/04 03:25:32;;;;;;;5.00;4.50;;;6.50;99.90;;;;;;4956335;28;20199;-79
2020/12/04 03:27:57;;;;;;;4.53;4.13;;;6.40;99.90;;;;;;4973253;28;20179;-79
2020/12/04 03:30:23;;;;;;;4.43;4.10;;;6.50;99.90;;;;;;4972490;28;20529;-79
2020/12/04 03:32:49;;;;;;;5.70;4.87;;;6.50;99.90;;;;;;4973075;28;21176;-79
2020/12/04 03:35:15;;;;;;;5.07;4.27;;;6.40;99.90;;;;;;4972116;28;20843;-79
2020/12/04 03:37:40;;;;;;;4.37;3.97;;;6.50;99.90;;;;;;4974571;28;20160;-79
2020/12/04 03:40:06;;;;;;;4.53;3.80;;;6.40;99.90;;;;;;4971875;28;20259;-78
2020/12/04 03:42:32;;;;;;;3.33;2.70;;;6.50;99.90;;;;;;4974467;28;20629;-79
2020/12/04 03:44:58;;;;;;;6.33;4.87;;;6.60;99.90;;;;;;4973351;28;20696;-78
2020/12/04 03:47:23;;;;;;;4.40;4.00;;;6.60;99.90;;;;;;4973529;28;20163;-79
2020/12/04 03:49:49;;;;;;;3.73;3.30;;;6.60;99.90;;;;;;4955939;28;20168;-79
2020/12/04 03:52:20;;;;;;;3.53;3.23;;;6.70;99.90;;;;;;4956467;28;20179;-79
2020/12/04 03:54:49;;;;;;;4.13;3.53;;;6.60;99.90;;;;;;4976318;28;20997;-79
2020/12/04 03:57:15;;;;;;;4.35;3.90;;;6.80;99.90;;;;;;4974089;28;20186;-79
2020/12/04 03:59:41;;;;;;;3.57;3.27;;;6.70;99.90;;;;;;4972888;28;20634;-79
2020/12/04 04:02:07;;;;;;;2.97;2.70;;;6.90;99.90;;;;;;4974477;28;20564;-79
2020/12/04 04:04:32;;;;;;;3.97;3.67;;;7.00;99.90;;;;;;4972908;28;20231;-80
2020/12/04 04:06:58;;;;;;;3.50;3.20;;;6.90;99.90;;;;;;4972628;28;20522;-79
2020/12/04 04:09:24;;;;;;;3.33;3.03;;;6.90;99.90;;;;;;4971672;28;20581;-79
2020/12/04 04:11:50;;;;;;;3.30;3.00;;;6.90;99.90;;;;;;4973657;28;20259;-79
2020/12/04 04:14:18;;;;;;;3.13;2.83;;;7.00;99.90;;;;;;4971425;28;20703;-79
2020/12/04 04:16:44;;;;;;;3.37;2.40;;;7.00;99.90;;;;;;4973256;28;20180;-79
2020/12/04 04:19:09;;;;;;;2.50;2.30;;;7.10;99.90;;;;;;4972280;28;20563;-79
2020/12/04 04:21:39;;;;;;;3.28;2.70;;;7.10;99.90;;;;;;4972727;28;20195;-79
2020/12/04 04:24:06;;;;;;;3.40;2.70;;;7.20;99.90;;;;;;4955303;28;20861;-79
2020/12/04 04:26:32;;;;;;;3.67;3.03;;;7.20;99.90;;;;;;4973621;28;20188;-79
2020/12/04 04:28:57;;;;;;;3.60;2.87;;;7.30;99.90;;;;;;4971000;28;20183;-79
2020/12/04 04:31:23;;;;;;;2.90;2.57;;;7.10;99.90;;;;;;4972887;28;20176;-79
2020/12/04 04:33:49;;;;;;;2.90;2.50;;;7.20;99.90;;;;;;4957498;28;20630;-80
2020/12/04 04:36:17;;;;;;;3.40;3.10;;;7.30;99.90;;;;;;4972331;28;20188;-79
2020/12/04 04:38:42;;;;;;;2.63;2.43;;;7.20;99.90;;;;;;4972226;28;20527;-80
2020/12/04 04:41:08;;;;;;;3.20;2.90;;;7.40;99.90;;;;;;4971924;28;21175;-80
2020/12/04 04:43:35;;;;;;;2.45;2.25;;;7.30;99.90;;;;;;4972951;28;20575;-79
2020/12/04 04:46:37;;;;;;;3.33;3.03;;;7.40;99.90;;;;;;4971388;28;20692;-79
2020/12/04 04:49:12;;;;;;;3.45;3.15;;;7.30;99.90;;;;;;4972204;28;21104;-79
2020/12/04 04:51:40;;;;;;;2.90;2.58;;;7.40;99.90;;;;;;4972724;28;20187;-80
2020/12/04 04:54:08;;;;;;;2.40;2.05;;;7.40;99.90;;;;;;4972536;28;20207;-79
2020/12/04 04:56:34;;;;;;;1.60;1.48;;;7.40;99.90;;;;;;4973461;28;20303;-80
2020/12/04 04:59:00;;;;;;;2.93;2.70;;;7.50;99.90;;;;;;4971934;28;20246;-80
2020/12/04 05:01:28;;;;;;;3.17;2.05;;;7.50;99.90;;;;;;4972636;28;20534;-80
2020/12/04 05:03:58;;;;;;;3.40;3.10;;;7.50;99.90;;;;;;4971073;28;20168;-80
2020/12/04 05:06:34;;;;;;;6.40;3.17;;;7.50;99.90;;;;;;4972765;28;20195;-79
2020/12/04 05:09:02;;;;;;;2.08;1.85;;;7.50;99.90;;;;;;4957020;28;20202;-79
2020/12/04 05:11:30;;;;;;;2.70;2.40;;;7.50;99.90;;;;;;4956373;28;20180;-79
2020/12/04 05:14:13;;;;;;;2.35;1.95;;;7.50;99.90;;;;;;4956390;28;20336;-79
2020/12/04 05:16:39;;;;;;;3.33;2.33;;;7.60;99.90;;;;;;4982918;28;20192;-80
2020/12/04 05:19:05;;;;;;;3.85;2.20;;;7.60;99.90;;;;;;4986003;28;20172;-80
2020/12/04 05:21:32;;;;;;;1.93;1.73;;;7.60;99.90;;;;;;4987958;28;20214;-80
2020/12/04 05:23:59;;;;;;;4.05;2.58;;;7.60;99.90;;;;;;4989074;28;20567;-80
2020/12/04 05:26:43;;;;;;;2.35;2.15;;;7.50;99.90;;;;;;4969401;28;20222;-80
2020/12/04 05:29:09;;;;;;;1.98;1.55;;;7.60;99.90;;;;;;4990893;28;20168;-80
2020/12/04 05:31:35;;;;;;;2.53;1.90;;;7.60;99.90;;;;;;4976813;28;20311;-80
2020/12/04 05:34:19;;;;;;;2.83;2.38;;;7.60;99.90;;;;;;4973102;28;20199;-80
2020/12/04 05:36:46;;;;;;;2.85;2.28;;;7.70;99.90;;;;;;4973576;28;20192;-80
2020/12/04 05:39:12;;;;;;;1.95;1.42;;;7.70;99.90;;;;;;4975547;28;20160;-79
2020/12/04 05:41:46;;;;;;;2.30;1.65;;;7.70;99.90;;;;;;4977219;28;20638;-79
2020/12/04 05:44:12;;;;;;;2.55;2.10;;;7.80;99.90;;;;;;4975935;28;20699;-79
2020/12/04 05:46:38;;;;;;;2.60;2.08;;;7.90;99.90;;;;;;4963940;28;20191;-79
2020/12/04 05:49:09;;;;;;;2.30;1.60;;;7.80;99.90;;;;;;4975537;28;20199;-80
2020/12/04 05:51:37;;;;;;;2.20;1.27;;;7.90;99.90;;;;;;4976952;28;20178;-80
2020/12/04 05:54:05;;;;;;;1.98;1.40;;;8.00;99.90;;;;;;4976050;28;20199;-81
2020/12/04 05:56:33;;;;;;;1.95;1.70;;;8.00;99.90;;;;;;4959193;28;20203;-80
2020/12/04 05:59:02;;;;;;;2.22;1.45;;;8.00;99.90;;;;;;4987112;28;20171;-80
2020/12/04 06:01:28;;;;;;;2.30;1.35;;;8.10;99.90;;;;;;4970353;28;20175;-80
2020/12/04 06:03:56;;;;;;;1.67;1.30;;;8.10;99.90;;;;;;4976565;28;20231;-79
2020/12/04 06:06:29;;;;;;;2.40;1.60;;;8.10;99.90;;;;;;4995691;28;20195;-80
2020/12/04 06:09:08;;;;;;;2.25;1.90;;;8.10;99.90;;;;;;4998005;28;20235;-80
2020/12/04 06:11:46;;;;;;;2.20;1.77;;;8.10;99.90;;;;;;4998712;28;20171;-80
2020/12/04 06:14:15;;;;;;;2.50;1.85;;;8.10;99.90;;;;;;4997533;28;20203;-80
2020/12/04 06:16:43;;;;;;;2.20;1.20;;;8.10;99.90;;;;;;4998523;28;20184;-80
2020/12/04 06:19:27;;;;;;;2.22;1.63;;;8.20;99.90;;;;;;4997137;28;20188;-80
2020/12/04 06:22:02;;;;;;;2.78;1.30;;;8.20;99.90;;;;;;4996646;28;20160;-81
2020/12/04 06:24:27;;;;;;;1.83;1.60;;;8.20;99.90;;;;;;4998360;28;20171;-80
2020/12/04 06:26:53;;;;;;;1.90;1.60;;;8.30;99.90;;;;;;4979822;28;20202;-80
2020/12/04 06:29:19;;;;;;;2.97;1.83;;;8.40;99.90;;;;;;4968910;28;20672;-81
2020/12/04 06:31:45;;;;;;;1.77;1.43;;;8.30;99.90;;;;;;4976966;28;20654;-80
2020/12/04 06:34:19;;;;;;;1.93;1.50;;;8.30;99.90;;;;;;4959225;28;20206;-82
2020/12/04 06:36:46;;;;;;;1.70;1.30;;;8.30;99.90;;;;;;4977121;28;20621;-80
2020/12/04 06:39:32;;;;;;;2.00;1.65;;;8.30;99.90;;;;;;4976364;28;20203;-80
2020/12/04 06:41:59;;;;;;;2.67;1.42;;;8.40;99.90;;;;;;4975123;28;20207;-80
2020/12/04 06:44:27;;;;;;;1.98;1.55;;;8.40;99.90;;;;;;4976438;28;20172;-80
2020/12/04 06:47:00;;;;;;;1.50;1.17;;;8.40;99.90;;;;;;4975554;28;20183;-80
2020/12/04 06:49:37;;;;;;;1.73;1.50;;;8.40;99.90;;;;;;4974315;28;20255;-79
2020/12/04 06:52:02;;;;;;;1.60;1.30;;;8.50;99.90;;;;;;4975184;28;20589;-80
2020/12/04 06:54:30;;;;;;;2.28;1.55;;;8.50;99.90;;;;;;4974701;28;20201;-80
2020/12/04 06:56:56;;;;;;;1.50;1.05;;;8.50;99.90;;;;;;4974622;28;20234;-79
2020/12/04 06:59:30;;;;;;;1.77;1.30;;;8.60;99.90;;;;;;4972556;28;20176;-79
2020/12/04 07:02:04;;;;;;;4.93;1.30;;;8.60;99.90;;;;;;4963505;28;20186;-79
2020/12/04 07:04:35;;;;;;;1.90;1.27;;;8.60;99.90;;;;;;4964407;28;20234;-81
2020/12/04 07:07:09;;;;;;;2.40;1.10;;;8.70;99.90;;;;;;4947485;28;20179;-79
2020/12/04 07:09:52;;;;;;;2.13;1.50;;;8.70;99.90;;;;;;4965751;28;20598;-79
2020/12/04 07:12:20;;;;;;;1.60;1.10;;;8.70;99.90;;;;;;4964560;28;20180;-81
2020/12/04 07:14:56;;;;;;;2.13;1.25;;;8.70;99.90;;;;;;4964424;28;20177;-81
2020/12/04 07:17:24;;;;;;;1.40;1.05;;;8.70;99.90;;;;;;4962073;28;20183;-81
2020/12/04 07:19:51;;;;;;;2.45;1.25;;;8.70;99.90;;;;;;4975061;28;20173;-80
2020/12/04 07:22:20;;;;;;;1.83;1.40;;;8.80;99.90;;;;;;4964931;28;20666;-81
2020/12/04 07:24:47;;;;;;;3.60;1.17;;;8.80;99.90;;;;;;4938129;28;20234;-80
2020/12/04 07:27:15;;;;;;;2.10;1.30;;;8.80;99.90;;;;;;4967677;28;20182;-80
2020/12/04 07:29:41;;;;;;;1.85;1.10;;;8.70;99.90;;;;;;4963703;28;20183;-80
2020/12/04 07:32:07;;;;;;;3.55;1.80;;;8.70;99.90;;;;;;4976701;28;20564;-80
2020/12/04 07:34:38;;;;;;;1.95;1.45;;;8.70;99.90;;;;;;4944885;28;20200;-81
2020/12/04 07:37:08;;;;;;;1.63;1.27;;;8.70;99.90;;;;;;4970912;28;20221;-81
2020/12/04 07:39:39;;;;;;;2.22;1.60;;;8.70;99.90;;;;;;4960650;28;20176;-81
2020/12/04 07:42:07;;;;;;;4.47;1.25;;;8.80;99.90;;;;;;4963457;28;20187;-81
2020/12/04 07:44:35;;;;;;;1.70;1.33;;;8.70;99.90;;;;;;4961820;28;20180;-80
2020/12/04 07:47:11;;;;;;;2.03;0.95;;;8.70;99.90;;;;;;4960438;28;20184;-78
2020/12/04 07:49:42;;;;;;;2.50;1.40;;;8.70;99.90;;;;;;4953703;29;20176;-79
2020/12/04 07:52:11;;;;;;;2.00;1.25;;;8.80;99.90;;;;;;4953635;29;20168;-79
2020/12/04 07:54:37;;;;;;;1.95;1.25;;;8.80;99.90;;;;;;4967284;28;20549;-79
2020/12/04 07:57:05;;;;;;;2.05;1.35;;;8.80;99.90;;;;;;4972866;28;20660;-80
2020/12/04 07:59:33;;;;;;;1.80;1.50;;;8.80;99.90;;;;;;4955356;28;20654;-80
2020/12/04 08:02:08;;;;;;;2.97;1.73;;;8.80;99.90;;;;;;4972437;28;20168;-80
2020/12/04 08:04:34;;;;;;;2.10;1.40;;;8.80;99.90;;;;;;4955082;28;20186;-80
2020/12/04 08:07:11;;;;;;;2.20;1.15;;;8.80;99.90;;;;;;4972777;28;20226;-79
2020/12/04 08:09:44;;;;;;;2.15;1.40;;;8.80;99.90;;;;;;4972774;28;20597;-80
2020/12/04 08:12:30;;;;;;;2.00;1.00;;;8.80;99.90;;;;;;4955488;28;20182;-80
2020/12/04 08:14:58;;;;;;;1.92;1.60;;;8.70;99.90;;;;;;4964806;28;20636;-80
2020/12/04 08:17:26;;;;;;;1.63;1.00;;;8.80;99.90;;;;;;4954733;28;20175;-80
2020/12/04 08:19:53;;;;;;;1.73;1.23;;;8.80;99.90;;;;;;4974278;28;20180;-80
2020/12/04 08:22:33;;;;;;;1.67;1.00;;;8.90;99.90;;;;;;4995140;28;20235;-81
2020/12/04 08:25:07;;;;;;;1.65;1.02;;;8.90;99.90;;;;;;4978270;28;20190;-81
2020/12/04 08:27:35;;;;;;;2.42;0.85;;;9.00;99.90;;;;;;4995429;28;20160;-81
2020/12/04 08:30:15;;;;;;;1.20;0.90;;;9.10;99.90;;;;;;4978375;28;20239;-80
2020/12/04 08:32:43;;;;;;;1.30;0.90;;;9.20;99.90;;;;;;4978846;28;20210;-80
2020/12/04 08:35:16;;;;;;;1.63;1.00;;;9.20;99.90;;;;;;4961327;28;20191;-81
2020/12/04 08:37:42;;;;;;;1.35;0.73;;;9.30;99.90;;;;;;4942603;28;20296;-80
2020/12/04 08:40:28;;;;;;;2.20;0.90;;;9.30;99.90;;;;;;4958993;28;20227;-81
2020/12/04 08:43:14;;;;;;;2.45;0.80;;;9.30;99.90;;;;;;4975928;28;20645;-80
2020/12/04 08:45:42;;;;;;;1.60;1.00;;;9.30;99.90;;;;;;4976685;28;20227;-80
2020/12/04 08:48:14;;;;;;;1.63;1.05;;;9.40;99.90;;;;;;4958525;28;20164;-80
2020/12/04 08:50:46;;;;;;;2.08;0.90;;;9.40;99.90;;;;;;4974640;28;20180;-81
2020/12/04 08:53:14;;;;;;;1.60;1.00;;;9.40;99.90;;;;;;4974148;28;20203;-80
2020/12/04 08:55:51;;;;;;;1.42;0.90;;;9.40;99.90;;;;;;4972228;28;20285;-80
2020/12/04 08:58:18;;;;;;;1.30;1.00;;;9.40;99.90;;;;;;4971925;28;20692;-79
2020/12/04 09:00:45;;;;;;;2.40;1.00;;;9.50;99.90;;;;;;4938271;28;20600;-80
2020/12/04 09:03:12;;;;;;;1.65;1.10;;;9.50;99.90;;;;;;4971707;28;20172;-80
2020/12/04 09:05:38;;;;;;;2.10;1.38;;;9.60;99.90;;;;;;4954161;28;20258;-79
2020/12/04 09:08:05;;;;;;;1.50;1.00;;;9.50;99.90;;;;;;4971488;28;20637;-79
2020/12/04 09:10:30;;;;;;;2.28;1.00;;;9.60;99.90;;;;;;4954024;28;20676;-80
2020/12/04 09:12:56;;;;;;;2.63;1.20;;;9.60;99.90;;;;;;4973388;28;20286;-81
2020/12/04 09:15:23;;;;;;;2.50;1.10;;;9.70;99.90;;;;;;4974478;28;20218;-81
2020/12/04 09:17:49;;;;;;;2.63;1.23;;;9.70;99.90;;;;;;4974548;28;20179;-81
2020/12/04 09:20:15;;;;;;;1.83;1.20;;;9.80;99.90;;;;;;4974301;28;20167;-80
2020/12/04 09:22:41;;;;;;;1.30;1.00;;;9.90;99.90;;;;;;4958216;28;20651;-81
2020/12/04 09:25:10;;;;;;;2.45;1.20;;;9.80;99.90;;;;;;4975469;28;20206;-81
2020/12/04 09:27:36;;;;;;;2.15;1.20;;;9.80;99.90;;;;;;4959112;28;20172;-80
2020/12/04 09:30:06;;;;;;;2.55;1.08;;;9.80;99.90;;;;;;4978275;28;20241;-81
2020/12/04 09:32:32;;;;;;;4.00;1.00;;;9.90;99.90;;;;;;4975194;28;20175;-81
2020/12/04 09:34:58;;;;;;;1.23;0.93;;;9.90;99.90;;;;;;4975139;28;20242;-81
2020/12/04 09:37:29;;;;;;;2.33;0.90;;;10.00;99.90;;;;;;4975036;28;20172;-81
2020/12/04 09:39:58;;;;;;;2.00;1.50;;;10.00;99.90;;;;;;4957917;28;20164;-81
2020/12/04 09:42:26;;;;;;;2.15;1.15;;;10.00;99.90;;;;;;4975063;28;20633;-81
2020/12/04 09:44:53;;;;;;;1.70;1.00;;;10.00;99.90;;;;;;4975228;28;20656;-81
2020/12/04 09:47:20;;;;;;;1.70;1.05;;;10.10;99.90;;;;;;4973674;28;20255;-81
2020/12/04 09:49:47;;;;;;;1.50;0.90;;;10.10;99.90;;;;;;4957937;28;20178;-81
2020/12/04 09:52:15;;;;;;;1.30;0.70;;;10.10;99.90;;;;;;4974980;28;20164;-81
2020/12/04 09:54:44;;;;;;;2.88;1.00;;;10.20;99.90;;;;;;4974982;28;20199;-81
2020/12/04 09:57:11;;;;;;;1.63;0.80;;;10.20;99.90;;;;;;4927450;29;20191;-81
2020/12/04 09:59:38;;;;;;;1.20;0.80;;;10.20;99.90;;;;;;4956223;29;20627;-81
2020/12/04 10:02:04;;;;;;;1.30;0.80;;;10.30;99.90;;;;;;4955991;29;20534;-81
2020/12/04 10:04:31;;;;;;;1.45;0.80;;;10.30;99.90;;;;;;4939322;29;20194;-81
2020/12/04 10:06:57;;;;;;;1.90;0.80;;;10.40;99.90;;;;;;4958291;29;20207;-81
2020/12/04 10:09:24;;;;;;;1.73;0.85;;;10.40;99.90;;;;;;4952909;28;20379;-82
2020/12/04 10:11:50;;;;;;;2.25;1.02;;;10.40;99.90;;;;;;4957350;28;20167;-81
2020/12/04 10:14:17;;;;;;;2.88;1.17;;;10.40;99.90;;;;;;4974741;28;20555;-82
2020/12/04 10:16:44;;;;;;;1.70;0.95;;;10.40;99.90;;;;;;4974714;28;20195;-81
2020/12/04 10:19:16;;;;;;;2.45;1.08;;;10.50;99.90;;;;;;4974756;28;20168;-81
2020/12/04 10:21:43;;;;;;;1.23;0.90;;;10.50;99.90;;;;;;4974756;28;20563;-81
2020/12/04 10:24:10;;;;;;;1.80;0.80;;;10.50;99.90;;;;;;4974919;28;20175;-82
2020/12/04 10:26:47;;;;;;;1.33;0.70;;;10.50;99.90;;;;;;4974732;28;20519;-81
2020/12/04 10:29:15;;;;;;;1.58;0.60;;;10.50;99.90;;;;;;4973572;28;20581;-81
2020/12/04 10:31:41;;;;;;;1.52;0.82;;;10.50;99.90;;;;;;4957090;28;20172;-81
2020/12/04 10:34:07;;;;;;;1.03;0.60;;;10.50;99.90;;;;;;4957084;28;20196;-81
2020/12/04 10:36:35;;;;;;;1.40;0.70;;;10.50;99.90;;;;;;4974194;28;20595;-81
2020/12/04 10:39:02;;;;;;;1.58;0.70;;;10.60;99.90;;;;;;4973929;28;20658;-81
2020/12/04 10:41:31;;;;;;;1.30;0.77;;;10.50;99.90;;;;;;4957148;28;20171;-81
2020/12/04 10:43:58;;;;;;;1.88;0.82;;;10.60;99.90;;;;;;4978035;28;20176;-82
2020/12/04 10:46:24;;;;;;;1.23;0.68;;;10.60;99.90;;;;;;4974220;28;20191;-81
2020/12/04 10:48:50;;;;;;;1.55;0.60;;;10.50;99.90;;;;;;4956982;28;20175;-81
2020/12/04 10:51:21;;;;;;;1.27;0.70;;;10.50;99.90;;;;;;4974342;28;20175;-81
2020/12/04 10:53:47;;;;;;;1.02;0.57;;;10.40;99.90;;;;;;4956936;28;20203;-81
2020/12/04 10:56:13;;;;;;;1.63;0.60;;;10.40;99.90;;;;;;4974248;28;20235;-81
2020/12/04 10:58:39;;;;;;;1.67;0.70;;;10.30;99.90;;;;;;4956982;28;20176;-81
2020/12/04 11:01:05;;;;;;;1.20;0.60;;;10.20;99.90;;;;;;4974236;28;20175;-82
2020/12/04 11:06:22;;;;;;;1.10;0.63;;;10.20;99.90;;;;;;4973727;28;20605;-81
2020/12/04 11:08:49;;;;;;;1.10;0.60;;;10.30;99.90;;;;;;4973604;28;20202;-81
2020/12/04 11:11:16;;;;;;;1.63;0.70;;;10.40;99.90;;;;;;4972445;28;20633;-81
2020/12/04 11:13:42;;;;;;;3.10;0.80;;;10.40;99.90;;;;;;4956156;28;20600;-80
2020/12/04 11:16:08;;;;;;;1.88;0.70;;;10.40;99.90;;;;;;4955851;28;20215;-80
2020/12/04 11:18:34;;;;;;;1.63;0.87;;;10.50;99.90;;;;;;4956170;28;20607;-82
2020/12/04 11:21:00;;;;;;;1.80;1.03;;;10.50;99.90;;;;;;4943885;28;20563;-80
2020/12/04 11:23:27;;;;;;;1.30;0.75;;;10.50;99.90;;;;;;4956068;28;20176;-80
2020/12/04 11:25:53;;;;;;;1.30;0.70;;;10.40;99.90;;;;;;4955835;28;20192;-80
2020/12/04 11:28:19;;;;;;;1.83;1.10;;;10.30;99.90;;;;;;4972899;28;20599;-80
2020/12/04 11:30:44;;;;;;;1.30;0.80;;;10.30;99.90;;;;;;4973110;28;20218;-80
2020/12/04 11:33:10;;;;;;;1.57;0.73;;;10.20;99.90;;;;;;4973044;28;20615;-79
2020/12/04 11:35:36;;;;;;;1.20;0.63;;;10.20;99.90;;;;;;4955070;28;20701;-81
2020/12/04 11:38:03;;;;;;;1.00;0.70;;;10.20;99.90;;;;;;4973163;28;20227;-81
2020/12/04 11:40:29;;;;;;;1.20;0.60;;;10.10;99.90;;;;;;4955748;28;20573;-81
2020/12/04 11:42:55;;;;;;;1.05;0.60;;;10.10;99.90;;;;;;4973217;28;20179;-80
2020/12/04 11:45:21;;;;;;;0.90;0.50;;;10.10;99.90;;;;;;4940990;28;20196;-81
2020/12/04 11:47:47;;;;;;;1.40;0.60;;;10.10;99.90;;;;;;4972191;28;20251;-81
2020/12/04 11:50:17;;;;;;;1.00;0.50;;;10.20;99.90;;;;;;4955273;28;20247;-82
2020/12/04 11:52:43;;;;;;;1.20;0.50;;;10.10;99.90;;;;;;4955358;28;20175;-81
2020/12/04 11:55:10;;;;;;;1.05;0.50;;;10.20;99.90;;;;;;4955426;28;20634;-83
2020/12/04 11:57:38;;;;;;;1.20;0.50;;;10.20;99.90;;;;;;4976147;28;20630;-80
2020/12/04 12:00:05;;;;;;;1.10;0.50;;;10.20;99.90;;;;;;4955266;28;20539;-81
2020/12/04 12:02:38;;;;;;;1.00;0.40;;;10.20;99.90;;;;;;4954977;28;20210;-82
2020/12/04 12:05:12;;;;;;;1.00;0.43;;;10.20;99.90;;;;;;4925262;28;20221;-81
2020/12/04 12:07:39;;;;;;;0.95;0.50;;;10.30;99.90;;;;;;4936979;28;20642;-82
2020/12/04 12:10:05;;;;;;;1.00;0.50;;;10.30;99.90;;;;;;4922274;28;20180;-84
2020/12/04 12:12:31;;;;;;;0.90;0.40;;;10.40;99.90;;;;;;4954965;28;20568;-81
2020/12/04 12:14:57;;;;;;;0.98;0.50;;;10.50;99.90;;;;;;4953616;28;20326;-83
2020/12/04 12:17:23;;;;;;;1.20;0.40;;;10.60;99.90;;;;;;4954291;28;20245;-82
2020/12/04 12:19:49;;;;;;;1.10;0.50;;;10.60;99.90;;;;;;4938318;28;20267;-82
2020/12/04 12:22:15;;;;;;;1.35;0.40;;;10.70;99.90;;;;;;4950064;28;20190;-83
2020/12/04 12:24:42;;;;;;;0.97;0.50;;;10.90;99.90;;;;;;4938723;29;20762;-82
2020/12/04 12:27:09;;;;;;;1.15;0.50;;;10.90;99.90;;;;;;4970387;28;20637;-83
2020/12/04 12:29:36;;;;;;;1.17;0.50;;;11.00;99.90;;;;;;4969039;28;20168;-85
2020/12/04 12:32:04;;;;;;;2.22;0.50;;;11.10;99.90;;;;;;4935374;29;20187;-85
2020/12/04 12:37:16;;;;;;;1.88;0.52;;;11.10;99.90;;;;;;4952757;29;20172;-85
2020/12/04 12:39:42;;;;;;;1.10;0.43;;;11.20;99.90;;;;;;4951482;28;20171;-86
2020/12/04 12:42:10;;;;;;;1.00;0.50;;;11.30;99.90;;;;;;4954466;28;20653;-86
2020/12/04 12:44:37;;;;;;;1.10;0.40;;;11.30;99.90;;;;;;4971833;28;20646;-82
2020/12/04 12:47:07;;;;;;;1.02;0.47;;;11.30;99.90;;;;;;4970907;28;20183;-81
2020/12/04 12:49:33;;;;;;;2.22;0.70;;;11.40;99.90;;;;;;4954154;28;20207;-80
2020/12/04 12:51:59;;;;;;;1.40;0.60;;;11.40;99.90;;;;;;4971532;28;20246;-81
2020/12/04 12:54:27;;;;;;;1.08;0.50;;;11.30;99.90;;;;;;4938252;28;20623;-82
2020/12/04 12:56:55;;;;;;;1.63;0.50;;;11.40;99.90;;;;;;4937413;29;20283;-83
2020/12/04 12:59:21;;;;;;;1.00;0.50;;;11.40;99.90;;;;;;4952094;29;20164;-82
2020/12/04 13:01:50;;;;;;;1.27;0.70;;;11.40;99.90;;;;;;4935213;29;20179;-84
2020/12/04 13:04:16;;;;;;;1.00;0.50;;;11.40;99.90;;;;;;4951166;29;20231;-83
2020/12/04 13:06:46;;;;;;;1.10;0.60;;;11.40;99.90;;;;;;4935113;29;20232;-84